Time;durP1;ratioP1;P1;durP2;ratioP2;P2;SDS_P1;SDS_P2;PMS_P1;PMS_P2;Temp;Humidity;BMP_temperature;BMP_pressure;BME280_temperature;BME280_humidity;BME280_pressure;Samples;Min_cycle;Max_cycle;Signal;HPM_P1;HPM_P2
2022/06/30 00:00:32;;;;;;;2.33;2.23;;;;;;;-143.84;46.17;44993.84;5092551;28;20526;-74
2022/06/30 00:02:59;;;;;;;5.33;2.67;;;;;;;-143.84;46.32;44986.22;5077233;28;20513;-74
2022/06/30 00:05:26;;;;;;;7.50;3.17;;;;;;;-143.84;46.09;44980.53;5072236;28;20947;-74
2022/06/30 00:07:54;;;;;;;12.30;2.23;;;;;;;-143.84;46.19;44984.31;5088910;28;20487;-74
2022/06/30 00:10:22;;;;;;;4.43;2.57;;;;;;;-143.84;46.38;44999.56;5090152;28;20493;-76
2022/06/30 00:12:50;;;;;;;8.17;2.17;;;;;;;-143.84;46.10;44997.66;5091459;28;20451;-76
2022/06/30 00:15:17;;;;;;;4.20;2.20;;;;;;;-143.84;46.31;44993.84;5091389;28;21004;-76
2022/06/30 00:17:44;;;;;;;4.63;2.50;;;;;;;-143.84;45.41;44995.75;5091336;28;20441;-76
2022/06/30 00:20:12;;;;;;;3.80;2.70;;;;;;;-143.84;45.48;44993.84;5085429;28;20522;-76
2022/06/30 00:22:39;;;;;;;4.80;2.63;;;;;;;-143.84;45.53;44990.03;5091703;28;20493;-76
2022/06/30 00:25:07;;;;;;;4.37;2.43;;;;;;;-143.84;45.88;44986.22;5091692;28;20432;-76
2022/06/30 00:27:36;;;;;;;9.10;2.30;;;;;;;-143.84;45.40;44991.94;5091960;28;20439;-76
2022/06/30 00:30:04;;;;;;;10.90;3.00;;;;;;;-143.84;45.53;44997.66;5091779;28;20493;-76
2022/06/30 00:32:31;;;;;;;7.60;2.70;;;;;;;-143.84;45.57;44986.22;5090902;28;20505;-76
2022/06/30 00:34:59;;;;;;;5.70;2.37;;;;;;;-143.84;46.06;44974.81;5083250;28;21383;-76
2022/06/30 00:37:26;;;;;;;4.60;2.60;;;;;;;-143.84;45.41;44978.63;5091497;28;20857;-76
2022/06/30 00:39:53;;;;;;;4.30;2.87;;;;;;;-143.84;45.33;44991.94;5074119;28;20447;-76
2022/06/30 00:42:21;;;;;;;12.50;2.93;;;;;;;-143.84;44.77;45012.88;5071342;28;20444;-76
2022/06/30 00:44:50;;;;;;;3.83;3.13;;;;;;;-143.84;44.63;45016.69;5071325;28;20527;-76
2022/06/30 00:47:17;;;;;;;2.70;2.47;;;;;;;-143.84;45.18;44988.13;5071159;28;20781;-76
2022/06/30 00:49:45;;;;;;;4.57;3.20;;;;;;;-143.84;46.01;45009.09;5071150;28;20444;-76
2022/06/30 00:52:14;;;;;;;3.40;2.80;;;;;;;-143.84;47.32;45039.53;5071948;28;20432;-76
2022/06/30 00:54:45;;;;;;;3.47;2.50;;;;;;;-143.84;47.32;44986.22;5071054;28;20546;-76
2022/06/30 00:57:14;;;;;;;4.90;2.63;;;;;;;-143.84;47.18;45005.28;5069959;28;20476;-76
2022/06/30 00:59:46;;;;;;;3.90;2.27;;;;;;;-143.84;46.83;44988.13;5070703;28;20445;-76
2022/06/30 01:02:15;;;;;;;10.53;3.30;;;;;;;-143.84;47.38;45012.88;5090549;28;20844;-76
2022/06/30 01:04:43;;;;;;;7.23;2.57;;;;;;;-143.84;47.63;44995.75;5091088;28;20444;-76
2022/06/30 01:07:11;;;;;;;9.93;2.33;;;;;;;-143.84;47.21;44997.66;5091411;28;20861;-76
2022/06/30 01:15:09;;;;;;;6.57;2.70;;;;;;;-143.84;49.24;45009.09;5070671;28;20515;-76
2022/06/30 01:17:39;;;;;;;3.13;2.83;;;;;;;-143.84;49.31;44999.56;5070897;28;20445;-76
2022/06/30 01:20:07;;;;;;;4.47;2.97;;;;;;;-143.84;50.87;44986.22;5070935;28;20441;-76
2022/06/30 01:22:36;;;;;;;5.57;3.13;;;;;;;-143.84;51.63;44986.22;5071584;28;20440;-76
2022/06/30 01:25:04;;;;;;;10.63;3.03;;;;;;;-143.84;52.31;44995.75;5070756;28;20453;-76
2022/06/30 01:27:31;;;;;;;4.83;3.60;;;;;;;-143.84;52.72;45009.09;5070593;28;20532;-76
2022/06/30 01:29:59;;;;;;;5.47;3.07;;;;;;;-143.84;53.71;44997.66;5070481;28;20433;-76
2022/06/30 01:32:28;;;;;;;5.13;4.00;;;;;;;-143.84;54.09;45007.19;5070453;28;20950;-76
2022/06/30 01:34:55;;;;;;;12.60;2.93;;;;;;;-143.84;54.88;44988.13;5070233;28;20477;-76
2022/06/30 01:37:22;;;;;;;9.37;3.80;;;;;;;-143.84;55.30;45012.88;5070200;28;20507;-76
2022/06/30 01:39:51;;;;;;;6.33;3.10;;;;;;;-143.84;56.10;45039.53;5081300;28;20453;-76
2022/06/30 01:42:18;;;;;;;3.97;3.40;;;;;;;-143.84;56.47;45014.78;5070340;28;20441;-76
2022/06/30 01:44:45;;;;;;;5.90;4.03;;;;;;;-143.84;57.05;45003.38;5070194;28;20448;-76
2022/06/30 01:47:12;;;;;;;8.50;3.87;;;;;;;-143.84;57.60;45018.59;5070841;28;20457;-76
2022/06/30 01:49:40;;;;;;;11.40;3.63;;;;;;;-143.84;57.67;45005.28;5070080;28;20917;-76
2022/06/30 01:52:07;;;;;;;4.40;4.00;;;;;;;-143.84;57.71;45016.69;5070056;28;20566;-76
2022/06/30 01:54:34;;;;;;;12.10;3.47;;;;;;;-143.84;57.85;45016.69;5069713;28;20472;-76
2022/06/30 01:57:03;;;;;;;7.20;3.87;;;;;;;-143.84;58.25;45007.19;5069840;28;20847;-76
2022/06/30 01:59:30;;;;;;;5.93;3.60;;;;;;;-143.84;58.06;45012.88;5069966;28;20441;-76
2022/06/30 02:01:57;;;;;;;7.90;4.10;;;;;;;-143.84;58.56;45012.88;5069575;28;20494;-76
2022/06/30 02:07:09;;;;;;;18.33;4.03;;;;;;;-143.84;59.24;45016.69;5069485;28;20420;-76
2022/06/30 02:09:36;;;;;;;7.80;4.30;;;;;;;-143.84;59.49;45005.28;5069002;28;20440;-76
2022/06/30 02:14:50;;;;;;;7.57;4.00;;;;;;;-143.84;60.33;45007.19;5089991;28;20482;-77
2022/06/30 02:17:18;;;;;;;5.57;3.20;;;;;;;-143.84;60.19;45007.19;5089915;28;20440;-77
2022/06/30 02:19:45;;;;;;;12.07;3.93;;;;;;;-143.84;59.72;44972.91;5090030;28;20440;-77
2022/06/30 02:22:12;;;;;;;7.17;3.70;;;;;;;-143.84;60.27;45007.19;5090198;28;20952;-77
2022/06/30 02:24:40;;;;;;;9.60;3.70;;;;;;;-143.84;60.04;44988.13;5090485;28;21015;-77
2022/06/30 02:27:08;;;;;;;6.00;3.23;;;;;;;-143.84;59.94;45022.41;5092743;28;20436;-77
2022/06/30 02:29:35;;;;;;;9.27;3.67;;;;;;;-143.84;59.54;45026.22;5093292;28;20451;-77
2022/06/30 02:32:03;;;;;;;6.67;3.10;;;;;;;-143.84;59.58;44993.84;5093526;28;20493;-77
2022/06/30 02:34:30;;;;;;;4.27;3.30;;;;;;;-143.84;58.97;45005.28;5093705;28;20462;-77
2022/06/30 02:36:57;;;;;;;6.80;3.40;;;;;;;-143.84;58.90;45033.84;5081539;28;20475;-77
2022/06/30 02:39:25;;;;;;;5.10;4.40;;;;;;;-143.84;58.59;44995.75;5073643;28;20468;-77
2022/06/30 02:41:52;;;;;;;24.60;3.43;;;;;;;-143.84;58.45;45007.19;5072259;28;21041;-77
2022/06/30 02:44:21;;;;;;;9.13;3.80;;;;;;;-143.84;58.59;45003.38;5072239;28;20449;-77
2022/06/30 02:46:50;;;;;;;4.90;3.17;;;;;;;-143.84;58.15;45009.09;5072173;28;20494;-77
2022/06/30 02:49:18;;;;;;;4.90;3.67;;;;;;;-143.84;58.72;45022.41;5072291;28;20514;-77
2022/06/30 02:51:45;;;;;;;15.97;3.73;;;;;;;-143.84;58.33;44995.75;5071961;28;20483;-77
2022/06/30 02:54:12;;;;;;;7.50;3.47;;;;;;;-143.84;58.11;45007.19;5072052;28;20472;-77
2022/06/30 02:56:40;;;;;;;4.00;3.33;;;;;;;-143.84;58.30;45001.47;5071162;28;20480;-77
2022/06/30 02:59:08;;;;;;;4.03;3.40;;;;;;;-143.84;57.65;45010.97;5072026;28;20444;-77
2022/06/30 03:01:37;;;;;;;5.60;3.70;;;;;;;-143.84;57.44;44999.56;5071651;28;20475;-77
2022/06/30 03:04:05;;;;;;;5.23;3.97;;;;;;;-143.84;56.91;44997.66;5072180;28;20803;-77
2022/06/30 03:06:33;;;;;;;3.47;3.17;;;;;;;-143.84;57.61;45003.38;5071401;28;20494;-77
2022/06/30 03:09:02;;;;;;;5.33;3.10;;;;;;;-143.84;57.68;45003.38;5071438;28;21085;-76
2022/06/30 03:11:29;;;;;;;10.07;3.03;;;;;;;-143.84;57.50;45030.03;5092035;28;20481;-76
2022/06/30 03:13:56;;;;;;;9.40;3.80;;;;;;;-143.84;58.36;45018.59;5093344;28;20473;-76
2022/06/30 03:16:23;;;;;;;12.40;3.00;;;;;;;-143.84;58.81;45010.97;5092363;28;20471;-78
2022/06/30 03:18:53;;;;;;;7.20;2.97;;;;;;;-143.84;58.20;45014.78;5092796;28;20436;-78
2022/06/30 03:21:21;;;;;;;8.20;3.87;;;;;;;-143.84;58.39;45010.97;5082368;28;20445;-77
2022/06/30 03:23:49;;;;;;;5.50;3.20;;;;;;;-143.84;58.29;44993.84;5074417;28;20436;-80
2022/06/30 03:26:16;;;;;;;7.70;2.83;;;;;;;-143.84;58.30;45007.19;5081737;28;20942;-81
2022/06/30 03:28:44;;;;;;;4.47;2.80;;;;;;;-143.84;58.84;44995.75;5095404;28;20430;-82
2022/06/30 03:31:11;;;;;;;10.20;3.40;;;;;;;-143.84;58.65;45012.88;5095241;28;21078;-82
2022/06/30 03:33:38;;;;;;;8.10;2.40;;;;;;;-143.84;59.36;45020.50;5079119;28;20440;-82
2022/06/30 03:36:08;;;;;;;9.67;2.77;;;;;;;-143.84;59.21;44991.94;5074689;28;20526;-82
2022/06/30 03:38:35;;;;;;;7.90;2.90;;;;;;;-143.84;59.41;45026.22;5075403;28;20433;-82
2022/06/30 03:41:03;;;;;;;6.40;2.77;;;;;;;-143.84;58.45;44984.31;5074900;28;20433;-82
2022/06/30 03:43:30;;;;;;;10.27;3.10;;;;;;;-143.84;55.27;44995.75;5075600;28;20424;-80
2022/06/30 03:45:57;;;;;;;8.97;2.97;;;;;;;-143.84;51.34;44999.56;5074938;28;20491;-79
2022/06/30 03:48:24;;;;;;;4.30;2.40;;;;;;;-143.84;48.86;44980.53;5074589;28;20433;-79
2022/06/30 03:50:52;;;;;;;4.23;2.80;;;;;;;-143.84;46.33;44974.81;5075433;28;20768;-79
2022/06/30 03:53:20;;;;;;;7.10;3.50;;;;;;;-143.84;44.05;44950.06;5075364;28;20506;-81
2022/06/30 03:55:47;;;;;;;4.87;2.90;;;;;;;-143.84;43.45;44927.19;5075178;28;20483;-81
2022/06/30 03:58:15;;;;;;;7.50;3.73;;;;;;;-143.84;43.45;44917.69;5089369;28;20479;-79
2022/06/30 04:00:42;;;;;;;7.90;2.70;;;;;;;-143.84;41.54;44940.53;5095657;28;20782;-79
2022/06/30 04:03:09;;;;;;;12.40;3.10;;;;;;;-143.84;42.07;44900.53;5094946;28;20436;-79
2022/06/30 04:05:38;;;;;;;6.37;2.30;;;;;;;-143.84;40.00;44904.34;5095032;28;20448;-81
2022/06/30 04:08:05;;;;;;;16.63;3.10;;;;;;;-143.84;39.20;44925.31;5095407;28;20449;-80
2022/06/30 04:10:34;;;;;;;5.80;2.53;;;;;;;-143.84;38.19;44891.03;5095305;28;20438;-79
2022/06/30 04:13:01;;;;;;;8.27;3.10;;;;;;;-143.84;37.64;44900.53;5095523;28;20451;-79
2022/06/30 04:15:29;;;;;;;6.03;2.50;;;;;;;-143.84;37.43;44875.78;5094998;28;20463;-79
2022/06/30 04:17:57;;;;;;;12.10;2.87;;;;;;;-143.84;37.47;44873.88;5095192;28;20436;-79
2022/06/30 04:20:24;;;;;;;6.00;2.50;;;;;;;-143.84;36.84;44866.28;5093743;28;20956;-74
2022/06/30 04:22:53;;;;;;;5.73;2.30;;;;;;;-143.84;36.03;44868.19;5092195;28;20732;-74
2022/06/30 04:25:20;;;;;;;10.30;3.07;;;;;;;-143.84;35.92;44852.94;5088346;28;20479;-79
2022/06/30 04:27:50;;;;;;;5.07;2.63;;;;;;;-143.84;36.02;44849.13;5070901;28;20869;-80
2022/06/30 04:32:37;;;;;;;3.53;2.40;;;;;;;-143.84;35.50;44877.69;5071462;28;20445;-80
2022/06/30 04:33:07;;;;;;;10.87;3.03;;;;;;;-143.84;35.59;44837.72;5073559;28;20433;-79
2022/06/30 04:35:34;;;;;;;10.03;2.50;;;;;;;-143.84;35.32;44881.50;5075117;28;20479;-80
2022/06/30 04:38:02;;;;;;;9.83;2.70;;;;;;;-143.84;36.27;44868.19;5090308;28;20800;-80
2022/06/30 04:43:17;;;;;;;5.23;2.17;;;;;;;-143.84;35.19;44845.31;5080329;28;20408;-80
2022/06/30 04:45:44;;;;;;;5.00;2.07;;;;;;;-143.84;35.90;44851.03;5084452;28;20444;-79
2022/06/30 04:48:12;;;;;;;5.50;2.20;;;;;;;-143.84;35.47;44873.88;5074339;28;20441;-80
2022/06/30 04:50:40;;;;;;;4.93;2.47;;;;;;;-143.84;35.08;44837.72;5074292;28;20441;-79
2022/06/30 04:53:07;;;;;;;4.43;2.00;;;;;;;-143.84;34.96;44843.44;5073578;28;20452;-79
2022/06/30 04:55:35;;;;;;;7.43;2.60;;;;;;;-143.84;34.79;44828.19;5073645;28;20476;-78
2022/06/30 04:58:02;;;;;;;12.40;3.30;;;;;;;-143.84;34.64;44812.97;5072583;28;20527;-77
2022/06/30 05:00:31;;;;;;;6.07;2.47;;;;;;;-143.84;33.93;44854.84;5072788;28;20421;-77
2022/06/30 05:02:58;;;;;;;4.20;2.10;;;;;;;-143.84;34.65;44835.81;5072584;28;20441;-77
2022/06/30 05:05:25;;;;;;;4.50;2.17;;;;;;;-143.84;35.29;44835.81;5072653;28;20523;-78
2022/06/30 05:07:52;;;;;;;6.57;2.60;;;;;;;-143.84;34.22;44814.88;5072524;28;20953;-77
2022/06/30 05:10:19;;;;;;;4.37;2.60;;;;;;;-143.84;34.26;44852.94;5072213;28;20447;-78
2022/06/30 05:12:46;;;;;;;6.40;2.33;;;;;;;-143.84;35.19;44786.31;5072744;28;20449;-78
2022/06/30 05:15:14;;;;;;;8.43;2.13;;;;;;;-143.84;34.90;44832.00;5073044;28;20437;-78
2022/06/30 05:17:42;;;;;;;9.03;2.10;;;;;;;-143.84;35.02;44832.00;5072831;28;20445;-78
2022/06/30 05:20:11;;;;;;;4.60;2.20;;;;;;;-143.84;34.73;44839.63;5072250;28;20457;-78
2022/06/30 05:22:38;;;;;;;12.33;2.07;;;;;;;-143.84;35.08;44847.22;5081132;28;20828;-74
2022/06/30 05:27:50;;;;;;;5.13;2.00;;;;;;;-143.84;35.87;44803.44;5071478;28;20404;-75
2022/06/30 05:30:18;;;;;;;3.83;2.43;;;;;;;-143.84;35.83;44843.44;5078146;28;20439;-75
2022/06/30 05:32:47;;;;;;;2.73;2.23;;;;;;;-143.84;36.13;44835.81;5083600;28;20440;-75
2022/06/30 05:35:15;;;;;;;3.70;2.87;;;;;;;-143.84;35.03;44837.72;5087805;28;20843;-75
2022/06/30 05:37:42;;;;;;;6.97;3.00;;;;;;;-143.84;35.77;44784.41;5088241;28;20436;-75
2022/06/30 05:40:10;;;;;;;12.10;2.70;;;;;;;-143.84;35.94;44826.28;5076505;28;20460;-74
2022/06/30 05:42:37;;;;;;;18.53;3.23;;;;;;;-143.84;35.41;44851.03;5080554;28;20874;-77
2022/06/30 05:45:05;;;;;;;10.77;2.70;;;;;;;-143.84;34.73;44795.81;5083062;28;20452;-76
2022/06/30 05:47:34;;;;;;;9.70;2.67;;;;;;;-143.84;35.39;44832.00;5071839;28;20444;-75
2022/06/30 05:50:02;;;;;;;5.60;2.57;;;;;;;-143.84;35.05;44835.81;5089626;28;20467;-75
2022/06/30 05:52:30;;;;;;;8.37;2.63;;;;;;;-143.84;34.74;44828.19;5073410;28;20444;-76
2022/06/30 05:54:57;;;;;;;12.00;2.67;;;;;;;-143.84;35.22;44828.19;5090955;28;20443;-76
2022/06/30 05:57:24;;;;;;;4.70;2.17;;;;;;;-143.84;35.07;44814.88;5086799;28;21004;-76
2022/06/30 05:59:51;;;;;;;3.70;2.30;;;;;;;-143.84;35.02;44801.53;5081065;28;20448;-76
2022/06/30 06:02:19;;;;;;;3.40;2.07;;;;;;;-143.84;35.49;44801.53;5070466;28;20806;-76
2022/06/30 06:04:50;;;;;;;8.53;2.37;;;;;;;-143.84;35.59;44832.00;5070333;28;20950;-76
2022/06/30 06:14:49;;;;;;;2.80;2.00;;;;;;;-143.84;34.39;44832.00;5073053;28;20432;-76
2022/06/30 06:17:18;;;;;;;3.53;1.87;;;;;;;-143.84;34.48;44765.34;5063998;28;20476;-75
2022/06/30 06:19:45;;;;;;;3.40;2.20;;;;;;;-143.84;33.98;44788.22;5063791;28;20454;-76
2022/06/30 06:22:12;;;;;;;6.10;3.00;;;;;;;-143.84;34.21;44765.34;5067255;28;20511;-75
2022/06/30 06:24:39;;;;;;;6.40;2.30;;;;;;;-143.84;33.40;44805.34;5049485;28;20465;-75
2022/06/30 06:27:07;;;;;;;6.03;2.73;;;;;;;-143.84;33.28;44788.22;5061959;28;20540;-76
2022/06/30 06:29:34;;;;;;;9.00;2.00;;;;;;;-143.84;33.37;44797.72;5058701;28;20500;-76
2022/06/30 06:32:01;;;;;;;5.27;2.23;;;;;;;-143.84;34.84;44790.13;5050808;28;21005;-75
2022/06/30 06:34:30;;;;;;;3.53;2.20;;;;;;;-143.84;33.31;44805.34;5049080;28;20489;-75
2022/06/30 06:36:57;;;;;;;9.13;2.20;;;;;;;-143.84;33.63;44790.13;5048786;28;20485;-75
2022/06/30 06:39:24;;;;;;;7.30;2.33;;;;;;;-143.84;33.17;44803.44;5068863;28;20497;-75
2022/06/30 06:41:51;;;;;;;4.53;2.20;;;;;;;-143.84;33.63;44772.97;5068818;28;20429;-75
2022/06/30 06:44:19;;;;;;;9.93;2.07;;;;;;;-143.84;32.64;44799.63;5068938;28;20459;-75
2022/06/30 06:46:46;;;;;;;5.23;2.10;;;;;;;-143.84;33.54;44776.78;5069272;28;20433;-75
2022/06/30 06:49:13;;;;;;;6.53;2.27;;;;;;;-143.84;32.83;44761.56;5069088;28;20445;-75
2022/06/30 06:51:41;;;;;;;3.20;1.70;;;;;;;-143.84;33.50;44769.16;5068724;28;20503;-75
2022/06/30 06:54:09;;;;;;;4.63;1.53;;;;;;;-143.84;33.08;44765.34;5068470;28;20445;-75
2022/06/30 06:56:36;;;;;;;15.07;1.77;;;;;;;-143.84;32.29;44772.97;5068318;28;20554;-75
2022/06/30 06:59:03;;;;;;;2.83;2.10;;;;;;;-143.84;33.11;44759.66;5069312;28;20444;-75
2022/06/30 07:01:31;;;;;;;7.70;3.93;;;;;;;-143.84;34.40;44761.56;5068639;28;20440;-75
2022/06/30 07:03:58;;;;;;;15.90;10.50;;;;;;;-143.84;34.31;44772.97;5068667;28;20923;-75
2022/06/30 07:06:26;;;;;;;17.03;4.70;;;;;;;-143.84;34.17;44793.91;5068883;28;20486;-75
2022/06/30 07:08:55;;;;;;;26.10;8.37;;;;;;;-143.84;34.95;44784.41;5068752;28;20489;-75
2022/06/30 07:11:22;;;;;;;10.10;6.50;;;;;;;-143.84;34.87;44832.00;5068888;28;20449;-74
2022/06/30 07:13:49;;;;;;;12.93;5.20;;;;;;;-143.84;34.59;44795.81;5068578;28;20994;-75
2022/06/30 07:16:16;;;;;;;6.33;4.57;;;;;;;-143.84;34.61;44805.34;5068664;28;20480;-75
2022/06/30 07:18:43;;;;;;;5.47;2.97;;;;;;;-143.84;34.60;44793.91;5068438;28;20474;-75
2022/06/30 07:21:11;;;;;;;4.57;2.63;;;;;;;-143.84;34.60;44845.31;5068578;28;20436;-75
2022/06/30 07:23:39;;;;;;;6.67;3.47;;;;;;;-143.84;35.65;44795.81;5068614;28;20441;-75
2022/06/30 07:26:08;;;;;;;5.23;2.00;;;;;;;-143.84;36.37;44793.91;5068601;28;20448;-75
2022/06/30 07:28:36;;;;;;;8.27;2.53;;;;;;;-143.84;35.27;44830.09;5068635;28;20460;-75
2022/06/30 07:31:03;;;;;;;2.40;1.70;;;;;;;-143.84;34.18;44807.25;5068474;28;20540;-75
2022/06/30 07:33:30;;;;;;;11.17;2.10;;;;;;;-143.84;33.78;44805.34;5068668;28;20449;-75
2022/06/30 07:35:59;;;;;;;1.97;1.63;;;;;;;-143.84;33.94;44799.63;5068543;28;20509;-75
2022/06/30 07:38:26;;;;;;;21.20;2.30;;;;;;;-143.84;33.07;44818.66;5068290;28;20501;-75
2022/06/30 07:40:53;;;;;;;14.37;1.70;;;;;;;-143.84;32.57;44790.13;5068353;28;20441;-75
2022/06/30 07:43:22;;;;;;;3.33;1.67;;;;;;;-143.84;33.17;44780.59;5068429;28;20444;-75
2022/06/30 07:45:49;;;;;;;8.53;1.73;;;;;;;-143.84;33.84;44793.91;5068534;28;21391;-75
2022/06/30 07:48:16;;;;;;;3.00;1.33;;;;;;;-143.84;32.72;44812.97;5068531;28;20444;-75
2022/06/30 07:50:43;;;;;;;5.23;1.53;;;;;;;-143.84;32.62;44788.22;5068369;28;20444;-75
2022/06/30 07:53:11;;;;;;;7.13;2.13;;;;;;;-143.84;33.65;44792.00;5068614;28;20425;-75
2022/06/30 07:55:39;;;;;;;11.33;2.37;;;;;;;-143.84;34.88;44771.06;5068503;28;20834;-75
2022/06/30 07:58:06;;;;;;;7.83;2.03;;;;;;;-143.84;34.69;44778.69;5068265;28;20484;-75
2022/06/30 08:00:35;;;;;;;8.07;2.17;;;;;;;-143.84;35.23;44778.69;5068264;28;20445;-75
2022/06/30 08:03:02;;;;;;;8.83;2.80;;;;;;;-143.84;34.94;44774.88;5068197;28;20436;-75
2022/06/30 08:05:29;;;;;;;8.27;2.10;;;;;;;-143.84;36.45;44771.06;5069218;28;20437;-75
2022/06/30 08:07:57;;;;;;;8.43;1.83;;;;;;;-143.84;36.13;44774.88;5071818;28;20953;-75
2022/06/30 08:10:24;;;;;;;9.07;2.33;;;;;;;-143.84;35.05;44782.50;5071753;28;20528;-75
2022/06/30 08:12:51;;;;;;;4.47;2.57;;;;;;;-143.84;34.94;44814.88;5071762;28;20451;-75
2022/06/30 08:15:18;;;;;;;6.47;2.30;;;;;;;-143.84;34.77;44769.16;5071843;28;20444;-75
2022/06/30 08:17:47;;;;;;;2.93;1.60;;;;;;;-143.84;34.37;44769.16;5071511;28;21032;-75
2022/06/30 08:20:14;;;;;;;8.30;2.07;;;;;;;-143.84;34.57;44767.25;5071383;28;20449;-75
2022/06/30 08:22:41;;;;;;;6.20;2.20;;;;;;;-143.84;34.14;44788.22;5071641;28;20459;-75
2022/06/30 08:25:09;;;;;;;5.63;2.17;;;;;;;-143.84;33.32;44807.25;5071447;28;20449;-75
2022/06/30 08:27:36;;;;;;;5.43;1.70;;;;;;;-143.84;32.46;44782.50;5071264;28;20441;-75
2022/06/30 08:30:03;;;;;;;5.90;1.90;;;;;;;-143.84;34.55;44769.16;5071465;28;20453;-75
2022/06/30 08:32:30;;;;;;;7.23;2.23;;;;;;;-143.84;33.77;44771.06;5071338;28;20494;-75
2022/06/30 08:34:59;;;;;;;4.40;2.43;;;;;;;-143.84;34.04;44767.25;5071152;28;20452;-75
2022/06/30 08:37:26;;;;;;;10.47;1.90;;;;;;;-143.84;33.76;44757.75;5071369;28;20488;-76
2022/06/30 08:42:42;;;;;;;9.80;1.90;;;;;;;-143.84;33.36;44748.22;5071536;28;20566;-76
2022/06/30 08:45:17;;;;;;;11.50;2.10;;;;;;;-143.84;32.74;44750.13;5071499;28;20447;-76
2022/06/30 08:47:46;;;;;;;12.67;2.83;;;;;;;-143.84;32.38;44755.84;5070374;28;20868;-76
2022/06/30 08:50:16;;;;;;;6.10;1.50;;;;;;;-143.84;30.94;44763.47;5070331;28;20520;-76
2022/06/30 08:52:47;;;;;;;4.10;1.80;;;;;;;-143.84;32.03;44755.84;5070529;28;20468;-76
2022/06/30 08:55:15;;;;;;;4.23;1.90;;;;;;;-143.84;31.54;44742.50;5070867;28;20453;-75
2022/06/30 08:57:44;;;;;;;11.73;1.83;;;;;;;-143.84;31.50;44778.69;5071037;28;20500;-77
2022/06/30 09:00:17;;;;;;;8.20;1.93;;;;;;;-143.84;31.34;44755.84;5078042;28;20452;-76
2022/06/30 09:02:45;;;;;;;4.10;1.97;;;;;;;-143.84;33.19;44799.63;5080187;28;20452;-76
2022/06/30 09:05:14;;;;;;;5.70;1.63;;;;;;;-143.84;30.44;44778.69;5071366;28;20539;-76
2022/06/30 09:07:42;;;;;;;7.90;1.57;;;;;;;-143.84;32.08;44759.66;5088450;28;20542;-76
2022/06/30 09:10:09;;;;;;;9.03;2.00;;;;;;;-143.84;31.83;44761.56;5091436;28;20432;-76
2022/06/30 09:12:37;;;;;;;6.07;2.23;;;;;;;-143.84;31.68;44752.03;5092902;28;20504;-78
2022/06/30 09:15:05;;;;;;;3.87;2.10;;;;;;;-143.84;31.64;44738.69;5092654;28;20505;-78
2022/06/30 09:17:32;;;;;;;6.03;1.90;;;;;;;-143.84;30.88;44757.75;5092278;28;20846;-77
2022/06/30 09:20:02;;;;;;;2.90;1.80;;;;;;;-143.84;31.06;44750.13;5092562;28;20436;-81
2022/06/30 09:22:35;;;;;;;3.83;1.80;;;;;;;-143.84;32.53;44790.13;5093545;28;20448;-81
2022/06/30 09:25:04;;;;;;;17.27;2.60;;;;;;;-143.84;35.14;44759.66;5093799;28;20455;-81
2022/06/30 09:27:32;;;;;;;3.70;2.30;;;;;;;-143.84;34.77;44763.47;5093395;28;20440;-78
2022/06/30 09:30:07;;;;;;;3.80;2.00;;;;;;;-143.84;35.16;44772.97;5092876;28;20847;-77
2022/06/30 09:32:45;;;;;;;4.43;2.40;;;;;;;-143.84;34.73;44784.41;5092699;28;20440;-77
2022/06/30 09:35:13;;;;;;;6.00;2.20;;;;;;;-143.84;35.42;44776.78;5092848;28;20440;-77
2022/06/30 09:37:42;;;;;;;5.40;2.23;;;;;;;-143.84;35.42;44771.06;5092239;28;20460;-78
2022/06/30 09:40:11;;;;;;;9.13;2.00;;;;;;;-143.84;35.93;44795.81;5075494;28;20471;-79
2022/06/30 09:42:42;;;;;;;4.10;2.27;;;;;;;-143.84;35.85;44811.06;5071554;28;20436;-77
2022/06/30 09:45:11;;;;;;;6.87;2.23;;;;;;;-143.84;35.79;44797.72;5071793;28;20452;-77
2022/06/30 09:47:51;;;;;;;3.13;2.30;;;;;;;-143.84;36.12;44839.63;5073863;28;20771;-77
2022/06/30 09:50:18;;;;;;;10.50;1.80;;;;;;;-143.84;35.81;44839.63;5072328;28;20460;-78
2022/06/30 09:52:46;;;;;;;2.30;2.10;;;;;;;-143.84;36.52;44826.28;5074718;28;20447;-78
2022/06/30 09:55:14;;;;;;;5.63;2.37;;;;;;;-143.84;35.48;44784.41;5077907;28;20452;-77
2022/06/30 09:57:44;;;;;;;5.07;2.40;;;;;;;-143.84;35.75;44852.94;5073633;28;20576;-77
2022/06/30 10:00:14;;;;;;;2.30;1.87;;;;;;;-143.84;37.58;44835.81;5073462;28;21045;-77
2022/06/30 10:02:45;;;;;;;5.30;2.00;;;;;;;-143.84;36.35;44843.44;5071569;28;20441;-77
2022/06/30 10:05:14;;;;;;;3.43;2.20;;;;;;;-143.84;37.48;44841.53;5076383;28;20542;-77
2022/06/30 10:07:42;;;;;;;5.90;2.40;;;;;;;-143.84;37.07;44854.84;5074389;28;20452;-77
2022/06/30 10:10:13;;;;;;;8.83;1.90;;;;;;;-143.84;37.04;44862.47;5091739;28;20432;-77
2022/06/30 10:12:41;;;;;;;3.77;1.73;;;;;;;-143.84;36.32;44839.63;5077165;28;20455;-77
2022/06/30 10:15:11;;;;;;;7.50;2.50;;;;;;;-143.84;37.06;44792.00;5074460;28;20444;-77
2022/06/30 10:17:43;;;;;;;5.97;2.10;;;;;;;-143.84;36.64;44809.16;5079395;28;20471;-77
2022/06/30 10:20:11;;;;;;;7.70;2.03;;;;;;;-143.84;35.81;44870.09;5083048;28;21131;-77
2022/06/30 10:22:41;;;;;;;5.43;2.30;;;;;;;-143.84;35.74;44832.00;5079531;28;21259;-77
2022/06/30 10:25:08;;;;;;;4.67;1.90;;;;;;;-143.84;35.49;44862.47;5081458;28;20506;-76
2022/06/30 10:27:37;;;;;;;10.53;1.93;;;;;;;-143.84;35.70;44839.63;5080336;28;20440;-77
2022/06/30 10:30:09;;;;;;;12.40;2.50;;;;;;;-143.84;36.75;44816.78;5076436;28;20449;-77
2022/06/30 10:32:47;;;;;;;6.00;2.00;;;;;;;-143.84;37.13;44828.19;5074456;28;20444;-77
2022/06/30 10:35:29;;;;;;;6.03;1.80;;;;;;;-143.84;37.27;44837.72;5071939;28;20448;-77
2022/06/30 10:38:00;;;;;;;8.00;2.73;;;;;;;-143.84;37.00;44858.66;5077727;28;20480;-77
2022/06/30 10:40:45;;;;;;;15.13;2.37;;;;;;;-143.84;34.54;44820.56;5074718;28;21327;-77
2022/06/30 10:43:16;;;;;;;5.63;2.27;;;;;;;-143.84;37.33;44822.47;5078572;28;20452;-77
2022/06/30 10:46:01;;;;;;;5.00;2.80;;;;;;;-143.84;37.21;44835.81;5090073;28;20559;-77
2022/06/30 10:48:53;;;;;;;9.90;2.00;;;;;;;-143.84;35.92;44860.56;5071090;28;20451;-77
2022/06/30 10:51:21;;;;;;;4.00;2.17;;;;;;;-143.84;38.29;44843.44;5071098;28;20510;-77
2022/06/30 10:53:51;;;;;;;11.17;2.30;;;;;;;-143.84;38.44;44828.19;5070780;28;20428;-77
2022/06/30 10:56:19;;;;;;;4.13;2.00;;;;;;;-143.84;37.35;44809.16;5070667;28;20452;-77
2022/06/30 10:59:10;;;;;;;3.87;2.07;;;;;;;-143.84;35.72;44830.09;5070364;28;20982;-77
2022/06/30 11:01:39;;;;;;;7.90;1.93;;;;;;;-143.84;36.10;44824.38;5070602;28;20441;-77
2022/06/30 11:04:10;;;;;;;5.70;2.20;;;;;;;-143.84;35.48;44828.19;5070910;28;20820;-79
2022/06/30 11:07:01;;;;;;;11.10;3.03;;;;;;;-143.84;36.42;44833.91;5071004;28;20510;-77
2022/06/30 11:10:08;;;;;;;7.90;2.10;;;;;;;-143.84;36.62;44845.31;5070978;28;21043;-78
2022/06/30 11:12:58;;;;;;;6.53;2.10;;;;;;;-143.84;37.44;44839.63;5070645;28;20448;-77
2022/06/30 11:15:52;;;;;;;6.00;2.27;;;;;;;-143.84;36.96;44864.38;5076081;28;20464;-77
2022/06/30 11:18:21;;;;;;;3.50;1.93;;;;;;;-143.84;35.30;44858.66;5077566;28;21074;-78
2022/06/30 11:20:49;;;;;;;9.40;2.43;;;;;;;-143.84;35.79;44839.63;5075607;28;20793;-78
2022/06/30 11:23:18;;;;;;;3.50;1.87;;;;;;;-143.84;35.99;44841.53;5070889;28;20441;-78
2022/06/30 11:28:34;;;;;;;6.03;1.53;;;;;;;-143.84;35.96;44854.84;5075722;28;20447;-78
2022/06/30 11:31:02;;;;;;;6.13;1.80;;;;;;;-143.84;35.68;44856.75;5091136;28;20436;-78
2022/06/30 11:33:30;;;;;;;5.20;2.07;;;;;;;-143.84;36.58;44856.75;5091168;28;20520;-78
2022/06/30 11:36:06;;;;;;;2.90;1.83;;;;;;;-143.84;36.62;44835.81;5090631;28;20984;-78
2022/06/30 11:38:34;;;;;;;3.93;1.80;;;;;;;-143.84;36.76;44862.47;5091343;28;21193;-78
2022/06/30 11:43:53;;;;;;;4.00;1.43;;;;;;;-143.84;36.79;44870.09;5094990;28;20403;-78
2022/06/30 11:46:22;;;;;;;3.60;1.87;;;;;;;-143.84;37.87;44891.03;5095164;28;20424;-78
2022/06/30 11:48:49;;;;;;;11.00;2.80;;;;;;;-143.84;36.71;44881.50;5094942;28;20435;-78
2022/06/30 11:51:17;;;;;;;7.50;2.33;;;;;;;-143.84;37.27;44854.84;5094793;28;20431;-77
2022/06/30 11:53:46;;;;;;;3.77;2.10;;;;;;;-143.84;37.37;44870.09;5094779;28;20770;-77
2022/06/30 11:56:13;;;;;;;3.13;1.80;;;;;;;-143.84;37.67;44906.25;5094668;28;20906;-77